createdAt,value
2018-04-26T00:05:50.627Z,10.6
2018-04-26T00:11:50.591Z,11.14
2018-04-26T00:17:50.606Z,11.38
2018-04-26T00:23:50.653Z,10.48
2018-04-26T00:29:50.624Z,10.57
2018-04-26T00:35:50.665Z,10.87
2018-04-26T00:41:50.616Z,10.24
2018-04-26T00:47:50.672Z,10.93
2018-04-26T00:53:50.658Z,10.51
2018-04-26T03:05:50.712Z,10.02
2018-04-26T04:23:50.760Z,12.64
2018-04-26T05:23:50.795Z,13.61
2018-04-26T05:41:50.833Z,16.25
2018-04-26T05:53:49.085Z,19.84
2018-04-26T05:59:49.112Z,24.01
2018-04-26T06:05:49.136Z,20.9
2018-04-26T06:11:49.197Z,22.42
2018-04-26T06:17:49.098Z,20.14
2018-04-26T06:21:41.413Z,21.92
2018-04-26T06:25:27.493Z,23.79
2018-04-26T06:27:31.040Z,22.07
2018-04-26T06:33:31.071Z,22.82
2018-04-26T06:39:31.062Z,22.19
2018-04-26T06:45:31.073Z,34.28
2018-04-26T06:51:31.121Z,29.36
2018-04-26T06:57:31.106Z,28.37
2018-04-26T07:03:31.104Z,32.4
2018-04-26T07:09:31.104Z,31.66
2018-04-26T07:15:31.095Z,32.92
2018-04-26T07:21:31.101Z,24.8
2018-04-26T07:33:31.099Z,28.92
2018-04-26T07:39:31.111Z,28.46
2018-04-26T07:45:31.121Z,32.85
2018-04-26T07:51:31.158Z,30.46
2018-04-26T07:57:31.099Z,32.42
2018-04-26T08:03:31.123Z,25.81
2018-04-26T08:09:31.156Z,23.82
2018-04-26T08:15:31.108Z,19.27
2018-04-26T08:27:31.161Z,18.38
2018-04-26T08:33:31.143Z,17.19
2018-04-26T08:39:31.178Z,13.82
2018-04-26T08:45:31.216Z,12.97
2018-04-26T08:51:31.159Z,11.25
2018-04-26T08:57:31.165Z,11.36
2018-04-26T09:03:31.200Z,11.13
2018-04-26T09:09:31.159Z,12.28
2018-04-26T09:15:31.136Z,12.66
2018-04-26T09:21:31.197Z,11.72
2018-04-26T09:27:31.179Z,11.45
2018-04-26T09:33:31.167Z,12.19
2018-04-26T09:39:31.201Z,13.25
2018-04-26T09:45:31.157Z,12.77
2018-04-26T09:51:31.184Z,13.22
2018-04-26T09:57:31.213Z,11.24
2018-04-26T10:03:31.248Z,10.63
2018-04-26T10:09:31.193Z,9.47
2018-04-26T10:15:31.243Z,9.67
2018-04-26T10:21:31.210Z,9.22
2018-04-26T10:27:31.198Z,8.86
2018-04-26T10:33:31.173Z,9.54
2018-04-26T10:39:31.211Z,8.66
2018-04-26T10:45:31.195Z,8.26
2018-04-26T10:51:31.213Z,8.38
2018-04-26T10:57:31.260Z,7.67
2018-04-26T11:03:31.222Z,7.77
2018-04-26T11:10:15.220Z,7.84
2018-04-26T11:45:31.244Z,5.84
2018-04-26T12:03:31.220Z,12.25
2018-04-26T13:03:31.410Z,6.35
2018-04-26T14:21:31.305Z,5.08
2018-04-26T14:39:31.331Z,5.69
2018-04-26T15:57:31.363Z,6.68
2018-04-26T17:15:31.431Z,9.01
2018-04-26T18:33:31.462Z,11.12
2018-04-26T19:33:31.523Z,11.72
2018-04-26T20:33:31.560Z,10.99
2018-04-26T20:51:31.514Z,10.68
2018-04-26T22:09:31.580Z,12.57
2018-04-26T22:34:20.771Z,11.08
2018-04-26T22:40:20.743Z,11.5
2018-04-26T22:46:20.765Z,10.97
2018-04-26T22:52:20.746Z,11.08
2018-04-26T22:58:20.732Z,10.63
2018-04-26T23:04:20.777Z,11.03
2018-04-26T23:10:20.788Z,11.01
2018-04-26T23:16:20.762Z,11.27
2018-04-26T23:22:20.762Z,11.67
2018-04-26T23:28:20.751Z,10.73
2018-04-26T23:34:20.918Z,11.47
2018-04-26T23:40:20.933Z,11.36
2018-04-26T23:46:20.901Z,11.08
2018-04-26T23:52:20.905Z,10.25
2018-04-26T23:58:20.920Z,10.63
